sensor_id;sensor_type;location;lat;lon;timestamp;P1;durP1;ratioP1;P2;durP2;ratioP2
70293;SDS011;74367;35.280;-77.632;2024-03-02T00:01:15;9.57;;;2.63;;
70293;SDS011;74367;35.280;-77.632;2024-03-02T00:03:42;8.38;;;2.05;;
70293;SDS011;74367;35.280;-77.632;2024-03-02T00:06:08;14.40;;;1.70;;
70293;SDS011;74367;35.280;-77.632;2024-03-02T00:08:35;6.03;;;1.45;;
70293;SDS011;74367;35.280;-77.632;2024-03-02T00:11:01;12.05;;;1.40;;
70293;SDS011;74367;35.280;-77.632;2024-03-02T00:13:30;7.47;;;1.00;;
70293;SDS011;74367;35.280;-77.632;2024-03-02T00:15:57;7.85;;;1.52;;
70293;SDS011;74367;35.280;-77.632;2024-03-02T00:18:24;6.27;;;0.70;;
70293;SDS011;74367;35.280;-77.632;2024-03-02T00:20:54;8.90;;;0.55;;
70293;SDS011;74367;35.280;-77.632;2024-03-02T00:23:21;6.53;;;0.85;;
70293;SDS011;74367;35.280;-77.632;2024-03-02T00:25:51;10.50;;;0.85;;
70293;SDS011;74367;35.280;-77.632;2024-03-02T00:28:20;7.63;;;0.57;;
70293;SDS011;74367;35.280;-77.632;2024-03-02T00:31:06;8.87;;;0.50;;
70293;SDS011;74367;35.280;-77.632;2024-03-02T00:33:39;5.65;;;0.40;;
70293;SDS011;74367;35.280;-77.632;2024-03-02T00:36:13;4.65;;;1.10;;
70293;SDS011;74367;35.280;-77.632;2024-03-02T00:38:44;5.55;;;0.50;;
70293;SDS011;74367;35.280;-77.632;2024-03-02T00:41:15;8.88;;;0.52;;
70293;SDS011;74367;35.280;-77.632;2024-03-02T00:43:57;5.63;;;0.40;;
70293;SDS011;74367;35.280;-77.632;2024-03-02T00:46:49;5.43;;;0.50;;
70293;SDS011;74367;35.280;-77.632;2024-03-02T00:51:50;5.28;;;0.90;;
70293;SDS011;74367;35.280;-77.632;2024-03-02T00:54:23;8.98;;;1.38;;
70293;SDS011;74367;35.280;-77.632;2024-03-02T00:56:52;7.50;;;0.50;;
70293;SDS011;74367;35.280;-77.632;2024-03-02T00:59:20;6.53;;;0.80;;
70293;SDS011;74367;35.280;-77.632;2024-03-02T01:01:47;6.78;;;0.73;;
70293;SDS011;74367;35.280;-77.632;2024-03-02T01:04:14;8.63;;;1.23;;
70293;SDS011;74367;35.280;-77.632;2024-03-02T01:06:41;7.78;;;0.85;;
70293;SDS011;74367;35.280;-77.632;2024-03-02T01:09:08;9.50;;;1.00;;
70293;SDS011;74367;35.280;-77.632;2024-03-02T01:11:34;7.18;;;0.70;;
70293;SDS011;74367;35.280;-77.632;2024-03-02T01:14:00;10.38;;;1.10;;
70293;SDS011;74367;35.280;-77.632;2024-03-02T01:16:26;7.20;;;0.80;;
70293;SDS011;74367;35.280;-77.632;2024-03-02T01:18:52;8.60;;;1.73;;
70293;SDS011;74367;35.280;-77.632;2024-03-02T01:21:18;8.35;;;0.75;;
70293;SDS011;74367;35.280;-77.632;2024-03-02T01:23:44;6.63;;;0.65;;
70293;SDS011;74367;35.280;-77.632;2024-03-02T01:26:10;6.80;;;0.43;;
70293;SDS011;74367;35.280;-77.632;2024-03-02T01:28:36;5.95;;;0.88;;
70293;SDS011;74367;35.280;-77.632;2024-03-02T01:31:02;6.20;;;0.70;;
70293;SDS011;74367;35.280;-77.632;2024-03-02T01:33:28;26.15;;;1.80;;
70293;SDS011;74367;35.280;-77.632;2024-03-02T01:35:54;11.27;;;0.88;;
70293;SDS011;74367;35.280;-77.632;2024-03-02T01:38:20;7.28;;;0.80;;
70293;SDS011;74367;35.280;-77.632;2024-03-02T01:40:46;7.50;;;1.07;;
70293;SDS011;74367;35.280;-77.632;2024-03-02T01:43:13;8.93;;;0.93;;
70293;SDS011;74367;35.280;-77.632;2024-03-02T01:45:39;10.07;;;0.93;;
70293;SDS011;74367;35.280;-77.632;2024-03-02T01:48:06;7.13;;;0.88;;
70293;SDS011;74367;35.280;-77.632;2024-03-02T01:50:32;8.38;;;1.05;;
70293;SDS011;74367;35.280;-77.632;2024-03-02T01:52:59;7.10;;;1.03;;
70293;SDS011;74367;35.280;-77.632;2024-03-02T01:55:28;8.23;;;1.15;;
70293;SDS011;74367;35.280;-77.632;2024-03-02T01:57:58;10.23;;;1.50;;
70293;SDS011;74367;35.280;-77.632;2024-03-02T02:00:24;10.57;;;1.00;;
70293;SDS011;74367;35.280;-77.632;2024-03-02T02:02:51;9.38;;;1.88;;
70293;SDS011;74367;35.280;-77.632;2024-03-02T02:05:17;10.10;;;1.30;;
70293;SDS011;74367;35.280;-77.632;2024-03-02T02:07:43;8.98;;;1.20;;
70293;SDS011;74367;35.280;-77.632;2024-03-02T02:10:09;11.05;;;1.33;;
70293;SDS011;74367;35.280;-77.632;2024-03-02T02:12:36;11.10;;;0.93;;
70293;SDS011;74367;35.280;-77.632;2024-03-02T02:15:03;7.22;;;0.77;;
70293;SDS011;74367;35.280;-77.632;2024-03-02T02:17:30;12.00;;;1.33;;
70293;SDS011;74367;35.280;-77.632;2024-03-02T02:19:56;8.70;;;1.48;;
70293;SDS011;74367;35.280;-77.632;2024-03-02T02:22:22;6.70;;;0.93;;
70293;SDS011;74367;35.280;-77.632;2024-03-02T02:24:48;8.30;;;1.17;;
70293;SDS011;74367;35.280;-77.632;2024-03-02T02:27:14;7.77;;;1.37;;
70293;SDS011;74367;35.280;-77.632;2024-03-02T02:29:40;13.55;;;1.17;;
70293;SDS011;74367;35.280;-77.632;2024-03-02T02:32:07;7.25;;;1.42;;
70293;SDS011;74367;35.280;-77.632;2024-03-02T02:34:33;10.40;;;1.30;;
70293;SDS011;74367;35.280;-77.632;2024-03-02T02:36:59;9.37;;;1.60;;
70293;SDS011;74367;35.280;-77.632;2024-03-02T02:39:25;8.10;;;1.33;;
70293;SDS011;74367;35.280;-77.632;2024-03-02T02:41:51;8.88;;;1.88;;
70293;SDS011;74367;35.280;-77.632;2024-03-02T02:44:17;14.23;;;1.20;;
70293;SDS011;74367;35.280;-77.632;2024-03-02T02:46:43;10.20;;;1.70;;
70293;SDS011;74367;35.280;-77.632;2024-03-02T02:49:09;9.65;;;1.40;;
70293;SDS011;74367;35.280;-77.632;2024-03-02T02:51:35;11.10;;;2.38;;
70293;SDS011;74367;35.280;-77.632;2024-03-02T02:54:01;9.10;;;1.23;;
70293;SDS011;74367;35.280;-77.632;2024-03-02T02:56:27;12.70;;;1.27;;
70293;SDS011;74367;35.280;-77.632;2024-03-02T02:58:53;12.52;;;1.30;;
70293;SDS011;74367;35.280;-77.632;2024-03-02T03:01:19;8.98;;;1.23;;
70293;SDS011;74367;35.280;-77.632;2024-03-02T03:03:45;7.28;;;1.30;;
70293;SDS011;74367;35.280;-77.632;2024-03-02T03:06:11;6.70;;;1.10;;
70293;SDS011;74367;35.280;-77.632;2024-03-02T03:08:39;9.65;;;1.25;;
70293;SDS011;74367;35.280;-77.632;2024-03-02T03:11:05;7.97;;;1.35;;
70293;SDS011;74367;35.280;-77.632;2024-03-02T03:13:31;6.15;;;1.27;;
70293;SDS011;74367;35.280;-77.632;2024-03-02T03:15:57;8.50;;;1.70;;
70293;SDS011;74367;35.280;-77.632;2024-03-02T03:18:23;11.07;;;0.93;;
70293;SDS011;74367;35.280;-77.632;2024-03-02T03:20:49;5.45;;;0.95;;
70293;SDS011;74367;35.280;-77.632;2024-03-02T03:23:15;13.82;;;1.20;;
70293;SDS011;74367;35.280;-77.632;2024-03-02T03:25:42;5.13;;;0.70;;
70293;SDS011;74367;35.280;-77.632;2024-03-02T03:28:09;11.45;;;1.17;;
70293;SDS011;74367;35.280;-77.632;2024-03-02T03:30:38;12.70;;;1.55;;
70293;SDS011;74367;35.280;-77.632;2024-03-02T03:33:04;14.07;;;1.55;;
70293;SDS011;74367;35.280;-77.632;2024-03-02T03:35:33;9.25;;;1.13;;
70293;SDS011;74367;35.280;-77.632;2024-03-02T03:38:00;12.53;;;1.40;;
70293;SDS011;74367;35.280;-77.632;2024-03-02T03:40:26;10.48;;;1.70;;
70293;SDS011;74367;35.280;-77.632;2024-03-02T03:42:52;10.00;;;1.50;;
70293;SDS011;74367;35.280;-77.632;2024-03-02T03:45:18;9.95;;;1.38;;
70293;SDS011;74367;35.280;-77.632;2024-03-02T03:47:45;7.80;;;1.40;;
70293;SDS011;74367;35.280;-77.632;2024-03-02T03:50:11;6.83;;;1.33;;
70293;SDS011;74367;35.280;-77.632;2024-03-02T03:52:37;10.15;;;1.33;;
70293;SDS011;74367;35.280;-77.632;2024-03-02T03:55:03;11.57;;;0.93;;
70293;SDS011;74367;35.280;-77.632;2024-03-02T03:57:30;9.73;;;2.00;;
70293;SDS011;74367;35.280;-77.632;2024-03-02T03:59:57;9.00;;;1.70;;
70293;SDS011;74367;35.280;-77.632;2024-03-02T04:02:22;7.07;;;1.13;;
70293;SDS011;74367;35.280;-77.632;2024-03-02T04:04:49;12.23;;;1.02;;
70293;SDS011;74367;35.280;-77.632;2024-03-02T04:07:15;6.30;;;1.15;;
70293;SDS011;74367;35.280;-77.632;2024-03-02T04:09:41;11.00;;;0.90;;
70293;SDS011;74367;35.280;-77.632;2024-03-02T04:12:07;10.98;;;1.40;;
70293;SDS011;74367;35.280;-77.632;2024-03-02T04:14:33;14.68;;;1.42;;
70293;SDS011;74367;35.280;-77.632;2024-03-02T04:16:59;13.48;;;1.60;;
70293;SDS011;74367;35.280;-77.632;2024-03-02T04:19:25;9.53;;;1.57;;
70293;SDS011;74367;35.280;-77.632;2024-03-02T04:21:51;13.25;;;1.77;;
70293;SDS011;74367;35.280;-77.632;2024-03-02T04:24:17;12.25;;;2.03;;
70293;SDS011;74367;35.280;-77.632;2024-03-02T04:26:43;8.52;;;1.45;;
70293;SDS011;74367;35.280;-77.632;2024-03-02T04:29:09;13.87;;;1.33;;
70293;SDS011;74367;35.280;-77.632;2024-03-02T04:31:35;21.58;;;1.48;;
70293;SDS011;74367;35.280;-77.632;2024-03-02T04:34:01;16.23;;;1.50;;
70293;SDS011;74367;35.280;-77.632;2024-03-02T04:36:26;17.90;;;2.10;;
70293;SDS011;74367;35.280;-77.632;2024-03-02T04:38:52;13.70;;;1.55;;
70293;SDS011;74367;35.280;-77.632;2024-03-02T04:41:18;11.53;;;1.77;;
70293;SDS011;74367;35.280;-77.632;2024-03-02T04:43:44;24.98;;;2.30;;
70293;SDS011;74367;35.280;-77.632;2024-03-02T04:46:10;11.45;;;1.77;;
70293;SDS011;74367;35.280;-77.632;2024-03-02T04:48:36;12.30;;;1.70;;
70293;SDS011;74367;35.280;-77.632;2024-03-02T04:51:02;12.23;;;1.87;;
70293;SDS011;74367;35.280;-77.632;2024-03-02T04:53:28;12.60;;;1.50;;
70293;SDS011;74367;35.280;-77.632;2024-03-02T04:55:54;14.30;;;2.38;;
70293;SDS011;74367;35.280;-77.632;2024-03-02T04:58:20;13.27;;;1.70;;
70293;SDS011;74367;35.280;-77.632;2024-03-02T05:00:46;12.33;;;2.10;;
70293;SDS011;74367;35.280;-77.632;2024-03-02T05:03:12;18.48;;;2.05;;
70293;SDS011;74367;35.280;-77.632;2024-03-02T05:05:38;16.25;;;1.92;;
70293;SDS011;74367;35.280;-77.632;2024-03-02T05:08:05;15.90;;;2.03;;
70293;SDS011;74367;35.280;-77.632;2024-03-02T05:10:31;12.30;;;1.70;;
70293;SDS011;74367;35.280;-77.632;2024-03-02T05:12:57;17.88;;;1.98;;
70293;SDS011;74367;35.280;-77.632;2024-03-02T05:15:25;19.75;;;3.00;;
70293;SDS011;74367;35.280;-77.632;2024-03-02T05:17:51;16.92;;;2.15;;
70293;SDS011;74367;35.280;-77.632;2024-03-02T05:20:17;31.13;;;2.60;;
70293;SDS011;74367;35.280;-77.632;2024-03-02T05:22:43;15.05;;;1.48;;
70293;SDS011;74367;35.280;-77.632;2024-03-02T05:25:09;14.75;;;2.63;;
70293;SDS011;74367;35.280;-77.632;2024-03-02T05:27:35;19.75;;;2.05;;
70293;SDS011;74367;35.280;-77.632;2024-03-02T05:30:01;24.00;;;2.20;;
70293;SDS011;74367;35.280;-77.632;2024-03-02T05:32:28;18.97;;;2.43;;
70293;SDS011;74367;35.280;-77.632;2024-03-02T05:34:54;13.10;;;1.95;;
70293;SDS011;74367;35.280;-77.632;2024-03-02T05:37:20;18.85;;;2.03;;
70293;SDS011;74367;35.280;-77.632;2024-03-02T05:39:47;13.65;;;1.83;;
70293;SDS011;74367;35.280;-77.632;2024-03-02T05:42:13;11.07;;;1.83;;
70293;SDS011;74367;35.280;-77.632;2024-03-02T05:44:39;19.45;;;2.13;;
70293;SDS011;74367;35.280;-77.632;2024-03-02T05:47:05;18.77;;;2.83;;
70293;SDS011;74367;35.280;-77.632;2024-03-02T05:49:34;17.08;;;3.22;;
70293;SDS011;74367;35.280;-77.632;2024-03-02T05:52:00;27.63;;;2.72;;
70293;SDS011;74367;35.280;-77.632;2024-03-02T05:54:28;18.70;;;2.87;;
70293;SDS011;74367;35.280;-77.632;2024-03-02T05:56:54;12.85;;;1.92;;
70293;SDS011;74367;35.280;-77.632;2024-03-02T05:59:20;21.42;;;2.67;;
70293;SDS011;74367;35.280;-77.632;2024-03-02T06:01:46;20.63;;;2.60;;
70293;SDS011;74367;35.280;-77.632;2024-03-02T06:04:13;18.53;;;2.70;;
70293;SDS011;74367;35.280;-77.632;2024-03-02T06:06:39;24.52;;;3.38;;
70293;SDS011;74367;35.280;-77.632;2024-03-02T06:09:06;12.20;;;2.58;;
70293;SDS011;74367;35.280;-77.632;2024-03-02T06:11:39;15.07;;;2.65;;
70293;SDS011;74367;35.280;-77.632;2024-03-02T06:14:06;28.33;;;2.85;;
70293;SDS011;74367;35.280;-77.632;2024-03-02T06:16:33;21.70;;;2.10;;
70293;SDS011;74367;35.280;-77.632;2024-03-02T06:18:59;17.67;;;2.20;;
70293;SDS011;74367;35.280;-77.632;2024-03-02T06:21:26;20.88;;;2.47;;
70293;SDS011;74367;35.280;-77.632;2024-03-02T06:23:53;23.75;;;2.70;;
70293;SDS011;74367;35.280;-77.632;2024-03-02T06:26:19;12.88;;;2.60;;
70293;SDS011;74367;35.280;-77.632;2024-03-02T06:28:45;16.60;;;2.23;;
70293;SDS011;74367;35.280;-77.632;2024-03-02T06:31:11;19.52;;;3.08;;
70293;SDS011;74367;35.280;-77.632;2024-03-02T06:33:38;17.83;;;3.13;;
70293;SDS011;74367;35.280;-77.632;2024-03-02T06:36:07;12.52;;;2.00;;
70293;SDS011;74367;35.280;-77.632;2024-03-02T06:38:34;16.42;;;2.45;;
70293;SDS011;74367;35.280;-77.632;2024-03-02T06:41:00;15.37;;;2.63;;
70293;SDS011;74367;35.280;-77.632;2024-03-02T06:43:26;25.08;;;3.03;;
70293;SDS011;74367;35.280;-77.632;2024-03-02T06:45:53;15.40;;;2.38;;
70293;SDS011;74367;35.280;-77.632;2024-03-02T06:48:19;13.63;;;2.10;;
70293;SDS011;74367;35.280;-77.632;2024-03-02T06:50:49;9.40;;;2.60;;
70293;SDS011;74367;35.280;-77.632;2024-03-02T06:53:15;14.55;;;2.47;;
70293;SDS011;74367;35.280;-77.632;2024-03-02T06:55:46;14.65;;;2.45;;
70293;SDS011;74367;35.280;-77.632;2024-03-02T06:58:14;7.90;;;2.10;;
70293;SDS011;74367;35.280;-77.632;2024-03-02T07:00:43;10.60;;;2.25;;
70293;SDS011;74367;35.280;-77.632;2024-03-02T07:03:09;11.37;;;1.80;;
70293;SDS011;74367;35.280;-77.632;2024-03-02T07:05:36;10.20;;;1.92;;
70293;SDS011;74367;35.280;-77.632;2024-03-02T07:08:02;8.15;;;1.67;;
70293;SDS011;74367;35.280;-77.632;2024-03-02T07:10:28;12.25;;;1.45;;
70293;SDS011;74367;35.280;-77.632;2024-03-02T07:12:54;19.13;;;2.20;;
70293;SDS011;74367;35.280;-77.632;2024-03-02T07:15:20;9.83;;;1.87;;
70293;SDS011;74367;35.280;-77.632;2024-03-02T07:17:52;28.95;;;2.10;;
70293;SDS011;74367;35.280;-77.632;2024-03-02T07:20:18;11.75;;;2.45;;
70293;SDS011;74367;35.280;-77.632;2024-03-02T07:22:44;8.32;;;1.30;;
70293;SDS011;74367;35.280;-77.632;2024-03-02T07:25:10;9.90;;;1.17;;
70293;SDS011;74367;35.280;-77.632;2024-03-02T07:27:36;13.65;;;1.88;;
70293;SDS011;74367;35.280;-77.632;2024-03-02T07:30:02;17.00;;;1.52;;
70293;SDS011;74367;35.280;-77.632;2024-03-02T07:32:29;9.63;;;1.05;;
70293;SDS011;74367;35.280;-77.632;2024-03-02T07:34:55;7.03;;;1.02;;
70293;SDS011;74367;35.280;-77.632;2024-03-02T07:37:21;10.87;;;1.67;;
70293;SDS011;74367;35.280;-77.632;2024-03-02T07:39:48;9.25;;;1.50;;
70293;SDS011;74367;35.280;-77.632;2024-03-02T07:42:14;7.53;;;1.00;;
70293;SDS011;74367;35.280;-77.632;2024-03-02T07:44:41;13.50;;;1.30;;
70293;SDS011;74367;35.280;-77.632;2024-03-02T07:47:07;9.93;;;0.63;;
70293;SDS011;74367;35.280;-77.632;2024-03-02T07:49:35;7.47;;;1.07;;
70293;SDS011;74367;35.280;-77.632;2024-03-02T07:52:02;10.45;;;1.10;;
70293;SDS011;74367;35.280;-77.632;2024-03-02T07:54:28;10.52;;;1.20;;
70293;SDS011;74367;35.280;-77.632;2024-03-02T07:56:54;8.20;;;0.85;;
70293;SDS011;74367;35.280;-77.632;2024-03-02T07:59:20;6.13;;;1.15;;
70293;SDS011;74367;35.280;-77.632;2024-03-02T08:01:48;14.13;;;1.30;;
70293;SDS011;74367;35.280;-77.632;2024-03-02T08:04:15;6.93;;;1.08;;
70293;SDS011;74367;35.280;-77.632;2024-03-02T08:06:42;5.47;;;1.27;;
70293;SDS011;74367;35.280;-77.632;2024-03-02T08:09:08;9.02;;;1.23;;
70293;SDS011;74367;35.280;-77.632;2024-03-02T08:11:37;7.25;;;0.98;;
70293;SDS011;74367;35.280;-77.632;2024-03-02T08:14:03;10.23;;;1.23;;
70293;SDS011;74367;35.280;-77.632;2024-03-02T08:16:29;7.55;;;1.10;;
70293;SDS011;74367;35.280;-77.632;2024-03-02T08:18:55;7.68;;;1.20;;
70293;SDS011;74367;35.280;-77.632;2024-03-02T08:21:24;8.27;;;1.10;;
70293;SDS011;74367;35.280;-77.632;2024-03-02T08:23:51;11.20;;;0.97;;
70293;SDS011;74367;35.280;-77.632;2024-03-02T08:26:17;5.15;;;0.70;;
70293;SDS011;74367;35.280;-77.632;2024-03-02T08:28:43;6.15;;;1.15;;
70293;SDS011;74367;35.280;-77.632;2024-03-02T08:31:09;6.68;;;0.85;;
70293;SDS011;74367;35.280;-77.632;2024-03-02T08:33:35;9.55;;;1.00;;
70293;SDS011;74367;35.280;-77.632;2024-03-02T08:36:01;15.20;;;1.10;;
70293;SDS011;74367;35.280;-77.632;2024-03-02T08:38:27;10.60;;;1.30;;
70293;SDS011;74367;35.280;-77.632;2024-03-02T08:40:54;8.32;;;0.80;;
70293;SDS011;74367;35.280;-77.632;2024-03-02T08:43:20;7.43;;;0.70;;
70293;SDS011;74367;35.280;-77.632;2024-03-02T08:45:48;4.63;;;0.67;;
70293;SDS011;74367;35.280;-77.632;2024-03-02T08:48:14;8.63;;;0.85;;
70293;SDS011;74367;35.280;-77.632;2024-03-02T08:50:40;10.40;;;1.17;;
70293;SDS011;74367;35.280;-77.632;2024-03-02T08:53:06;5.35;;;1.30;;
70293;SDS011;74367;35.280;-77.632;2024-03-02T08:55:32;11.68;;;1.40;;
70293;SDS011;74367;35.280;-77.632;2024-03-02T08:57:58;11.67;;;1.80;;
70293;SDS011;74367;35.280;-77.632;2024-03-02T09:00:24;12.43;;;1.23;;
70293;SDS011;74367;35.280;-77.632;2024-03-02T09:02:50;7.65;;;0.60;;
70293;SDS011;74367;35.280;-77.632;2024-03-02T09:05:16;5.60;;;1.00;;
70293;SDS011;74367;35.280;-77.632;2024-03-02T09:07:42;11.47;;;0.97;;
70293;SDS011;74367;35.280;-77.632;2024-03-02T09:10:09;12.63;;;1.10;;
70293;SDS011;74367;35.280;-77.632;2024-03-02T09:12:35;20.30;;;1.42;;
70293;SDS011;74367;35.280;-77.632;2024-03-02T09:15:03;7.03;;;0.70;;
70293;SDS011;74367;35.280;-77.632;2024-03-02T09:17:29;8.60;;;1.00;;
70293;SDS011;74367;35.280;-77.632;2024-03-02T09:19:55;15.90;;;1.23;;
70293;SDS011;74367;35.280;-77.632;2024-03-02T09:22:21;8.38;;;0.85;;
70293;SDS011;74367;35.280;-77.632;2024-03-02T09:24:48;5.88;;;0.70;;
70293;SDS011;74367;35.280;-77.632;2024-03-02T09:27:14;8.48;;;0.75;;
70293;SDS011;74367;35.280;-77.632;2024-03-02T09:29:40;8.77;;;0.87;;
70293;SDS011;74367;35.280;-77.632;2024-03-02T09:32:06;3.83;;;0.73;;
70293;SDS011;74367;35.280;-77.632;2024-03-02T09:34:34;6.05;;;0.50;;
70293;SDS011;74367;35.280;-77.632;2024-03-02T09:37:00;7.93;;;0.90;;
70293;SDS011;74367;35.280;-77.632;2024-03-02T09:39:26;7.03;;;0.50;;
70293;SDS011;74367;35.280;-77.632;2024-03-02T09:41:52;2.38;;;0.30;;
70293;SDS011;74367;35.280;-77.632;2024-03-02T09:44:19;4.53;;;0.73;;
70293;SDS011;74367;35.280;-77.632;2024-03-02T09:46:48;6.30;;;0.40;;
70293;SDS011;74367;35.280;-77.632;2024-03-02T09:49:15;2.95;;;0.40;;
70293;SDS011;74367;35.280;-77.632;2024-03-02T09:51:42;8.80;;;1.00;;
70293;SDS011;74367;35.280;-77.632;2024-03-02T09:54:16;4.82;;;0.60;;
70293;SDS011;74367;35.280;-77.632;2024-03-02T09:56:43;6.38;;;1.00;;
70293;SDS011;74367;35.280;-77.632;2024-03-02T09:59:10;6.90;;;0.43;;
70293;SDS011;74367;35.280;-77.632;2024-03-02T10:01:37;5.93;;;0.60;;
70293;SDS011;74367;35.280;-77.632;2024-03-02T10:04:03;8.20;;;0.67;;
70293;SDS011;74367;35.280;-77.632;2024-03-02T10:06:30;6.10;;;0.60;;
70293;SDS011;74367;35.280;-77.632;2024-03-02T10:08:56;7.55;;;0.60;;
70293;SDS011;74367;35.280;-77.632;2024-03-02T10:11:26;9.40;;;0.60;;
70293;SDS011;74367;35.280;-77.632;2024-03-02T10:14:12;7.27;;;0.80;;
70293;SDS011;74367;35.280;-77.632;2024-03-02T10:16:39;6.22;;;0.52;;
70293;SDS011;74367;35.280;-77.632;2024-03-02T10:19:40;7.72;;;0.80;;
70293;SDS011;74367;35.280;-77.632;2024-03-02T10:22:03;7.38;;;0.57;;
70293;SDS011;74367;35.280;-77.632;2024-03-02T10:24:41;9.48;;;1.13;;
70293;SDS011;74367;35.280;-77.632;2024-03-02T10:27:19;7.37;;;0.90;;
70293;SDS011;74367;35.280;-77.632;2024-03-02T10:29:49;11.30;;;1.38;;
70293;SDS011;74367;35.280;-77.632;2024-03-02T10:32:15;12.10;;;1.58;;
70293;SDS011;74367;35.280;-77.632;2024-03-02T10:34:42;9.77;;;0.82;;
70293;SDS011;74367;35.280;-77.632;2024-03-02T10:37:10;9.95;;;1.20;;
70293;SDS011;74367;35.280;-77.632;2024-03-02T10:39:37;11.17;;;0.93;;
70293;SDS011;74367;35.280;-77.632;2024-03-02T10:42:07;9.75;;;1.00;;
70293;SDS011;74367;35.280;-77.632;2024-03-02T10:44:33;7.28;;;1.23;;
70293;SDS011;74367;35.280;-77.632;2024-03-02T10:47:00;16.63;;;1.67;;
70293;SDS011;74367;35.280;-77.632;2024-03-02T10:49:29;9.95;;;1.20;;
70293;SDS011;74367;35.280;-77.632;2024-03-02T10:51:56;11.13;;;1.13;;
70293;SDS011;74367;35.280;-77.632;2024-03-02T10:54:25;11.02;;;1.30;;
70293;SDS011;74367;35.280;-77.632;2024-03-02T10:56:54;9.38;;;1.02;;
70293;SDS011;74367;35.280;-77.632;2024-03-02T10:59:33;7.47;;;0.75;;
70293;SDS011;74367;35.280;-77.632;2024-03-02T11:02:01;9.02;;;1.30;;
70293;SDS011;74367;35.280;-77.632;2024-03-02T11:04:29;10.27;;;1.20;;
70293;SDS011;74367;35.280;-77.632;2024-03-02T11:06:59;7.93;;;1.55;;
70293;SDS011;74367;35.280;-77.632;2024-03-02T11:09:28;10.65;;;1.48;;
70293;SDS011;74367;35.280;-77.632;2024-03-02T11:12:02;9.63;;;1.50;;
70293;SDS011;74367;35.280;-77.632;2024-03-02T11:14:30;6.90;;;1.02;;
70293;SDS011;74367;35.280;-77.632;2024-03-02T11:16:58;10.40;;;1.27;;
70293;SDS011;74367;35.280;-77.632;2024-03-02T11:19:27;7.05;;;1.30;;
70293;SDS011;74367;35.280;-77.632;2024-03-02T11:21:54;6.18;;;1.27;;
70293;SDS011;74367;35.280;-77.632;2024-03-02T11:26:52;9.45;;;1.27;;
70293;SDS011;74367;35.280;-77.632;2024-03-02T11:32:02;8.30;;;1.25;;
70293;SDS011;74367;35.280;-77.632;2024-03-02T11:34:30;12.82;;;1.33;;
70293;SDS011;74367;35.280;-77.632;2024-03-02T11:37:03;10.43;;;1.27;;
70293;SDS011;74367;35.280;-77.632;2024-03-02T11:39:29;10.38;;;1.70;;
70293;SDS011;74367;35.280;-77.632;2024-03-02T11:41:56;7.27;;;1.27;;
70293;SDS011;74367;35.280;-77.632;2024-03-02T11:44:26;8.68;;;1.20;;
70293;SDS011;74367;35.280;-77.632;2024-03-02T11:46:59;8.00;;;1.25;;
70293;SDS011;74367;35.280;-77.632;2024-03-02T11:49:39;9.27;;;1.17;;
70293;SDS011;74367;35.280;-77.632;2024-03-02T11:52:11;10.15;;;1.20;;
70293;SDS011;74367;35.280;-77.632;2024-03-02T11:54:43;4.90;;;0.83;;
70293;SDS011;74367;35.280;-77.632;2024-03-02T11:57:16;9.90;;;1.25;;
70293;SDS011;74367;35.280;-77.632;2024-03-02T11:59:44;6.15;;;1.30;;
70293;SDS011;74367;35.280;-77.632;2024-03-02T12:02:17;6.97;;;0.93;;
70293;SDS011;74367;35.280;-77.632;2024-03-02T12:04:47;6.07;;;1.05;;
70293;SDS011;74367;35.280;-77.632;2024-03-02T12:07:20;10.20;;;1.03;;
70293;SDS011;74367;35.280;-77.632;2024-03-02T12:09:48;11.00;;;1.17;;
70293;SDS011;74367;35.280;-77.632;2024-03-02T12:12:28;10.85;;;1.30;;
70293;SDS011;74367;35.280;-77.632;2024-03-02T12:14:54;12.25;;;1.42;;
70293;SDS011;74367;35.280;-77.632;2024-03-02T12:17:21;5.18;;;0.80;;
70293;SDS011;74367;35.280;-77.632;2024-03-02T12:19:48;7.93;;;1.50;;
70293;SDS011;74367;35.280;-77.632;2024-03-02T12:22:14;7.53;;;1.23;;
70293;SDS011;74367;35.280;-77.632;2024-03-02T12:24:41;11.25;;;1.67;;
70293;SDS011;74367;35.280;-77.632;2024-03-02T12:27:10;11.45;;;1.95;;
70293;SDS011;74367;35.280;-77.632;2024-03-02T12:29:37;8.80;;;1.10;;
70293;SDS011;74367;35.280;-77.632;2024-03-02T12:32:04;8.40;;;0.93;;
70293;SDS011;74367;35.280;-77.632;2024-03-02T12:34:31;9.35;;;1.40;;
70293;SDS011;74367;35.280;-77.632;2024-03-02T12:36:57;7.78;;;1.40;;
70293;SDS011;74367;35.280;-77.632;2024-03-02T12:39:23;12.23;;;1.88;;
70293;SDS011;74367;35.280;-77.632;2024-03-02T12:41:50;9.63;;;1.77;;
70293;SDS011;74367;35.280;-77.632;2024-03-02T12:44:17;13.27;;;1.80;;
70293;SDS011;74367;35.280;-77.632;2024-03-02T12:46:43;10.13;;;1.30;;
70293;SDS011;74367;35.280;-77.632;2024-03-02T12:49:10;12.25;;;1.40;;
70293;SDS011;74367;35.280;-77.632;2024-03-02T12:51:41;7.75;;;1.52;;
70293;SDS011;74367;35.280;-77.632;2024-03-02T12:54:08;10.73;;;1.95;;
70293;SDS011;74367;35.280;-77.632;2024-03-02T12:56:38;9.10;;;1.30;;
70293;SDS011;74367;35.280;-77.632;2024-03-02T12:59:07;13.02;;;1.58;;
70293;SDS011;74367;35.280;-77.632;2024-03-02T13:01:36;13.82;;;1.17;;
70293;SDS011;74367;35.280;-77.632;2024-03-02T13:04:02;9.00;;;1.23;;
70293;SDS011;74367;35.280;-77.632;2024-03-02T13:06:28;12.10;;;1.70;;
70293;SDS011;74367;35.280;-77.632;2024-03-02T13:08:54;13.77;;;2.33;;
70293;SDS011;74367;35.280;-77.632;2024-03-02T13:11:21;14.43;;;1.15;;
70293;SDS011;74367;35.280;-77.632;2024-03-02T13:13:49;12.48;;;2.05;;
70293;SDS011;74367;35.280;-77.632;2024-03-02T13:16:15;14.48;;;1.25;;
70293;SDS011;74367;35.280;-77.632;2024-03-02T13:18:44;10.82;;;1.63;;
70293;SDS011;74367;35.280;-77.632;2024-03-02T13:21:10;8.53;;;1.43;;
70293;SDS011;74367;35.280;-77.632;2024-03-02T13:23:36;7.97;;;1.40;;
70293;SDS011;74367;35.280;-77.632;2024-03-02T13:26:02;13.88;;;1.88;;
70293;SDS011;74367;35.280;-77.632;2024-03-02T13:28:29;14.63;;;1.88;;
70293;SDS011;74367;35.280;-77.632;2024-03-02T13:30:55;9.67;;;1.10;;
70293;SDS011;74367;35.280;-77.632;2024-03-02T13:33:24;13.68;;;1.73;;
70293;SDS011;74367;35.280;-77.632;2024-03-02T13:35:51;15.43;;;2.10;;
70293;SDS011;74367;35.280;-77.632;2024-03-02T13:38:18;10.02;;;1.55;;
70293;SDS011;74367;35.280;-77.632;2024-03-02T13:40:45;11.73;;;2.22;;
70293;SDS011;74367;35.280;-77.632;2024-03-02T13:43:11;9.43;;;2.10;;
70293;SDS011;74367;35.280;-77.632;2024-03-02T13:45:38;12.35;;;1.70;;
70293;SDS011;74367;35.280;-77.632;2024-03-02T13:48:05;9.23;;;2.50;;
70293;SDS011;74367;35.280;-77.632;2024-03-02T13:50:31;9.95;;;1.90;;
70293;SDS011;74367;35.280;-77.632;2024-03-02T13:52:57;16.13;;;1.87;;
70293;SDS011;74367;35.280;-77.632;2024-03-02T13:55:24;14.30;;;2.10;;
70293;SDS011;74367;35.280;-77.632;2024-03-02T13:57:50;18.92;;;3.03;;
70293;SDS011;74367;35.280;-77.632;2024-03-02T14:00:17;16.17;;;2.63;;
70293;SDS011;74367;35.280;-77.632;2024-03-02T14:02:45;10.30;;;2.75;;
70293;SDS011;74367;35.280;-77.632;2024-03-02T14:05:11;13.18;;;3.17;;
70293;SDS011;74367;35.280;-77.632;2024-03-02T14:07:39;16.63;;;3.10;;
70293;SDS011;74367;35.280;-77.632;2024-03-02T14:10:05;11.10;;;3.10;;
70293;SDS011;74367;35.280;-77.632;2024-03-02T14:12:31;11.30;;;3.03;;
70293;SDS011;74367;35.280;-77.632;2024-03-02T14:14:57;14.07;;;3.20;;
70293;SDS011;74367;35.280;-77.632;2024-03-02T14:17:26;12.97;;;3.30;;
70293;SDS011;74367;35.280;-77.632;2024-03-02T14:19:52;17.35;;;3.63;;
70293;SDS011;74367;35.280;-77.632;2024-03-02T14:22:19;15.25;;;2.50;;
70293;SDS011;74367;35.280;-77.632;2024-03-02T14:24:45;10.80;;;3.50;;